createdAt,value
2022-11-16T00:00:25.319Z,22.4
2022-11-16T00:05:34.583Z,22.4
2022-11-16T00:07:17.973Z,22.4
2022-11-16T00:09:01.360Z,22.4
2022-11-16T00:10:44.757Z,22.4
2022-11-16T00:12:28.146Z,22.4
2022-11-16T00:14:11.557Z,22.4
2022-11-16T00:15:54.966Z,22.4
2022-11-16T00:17:38.336Z,22.4
2022-11-16T00:21:04.802Z,22.4
2022-11-16T00:22:48.224Z,22.4
2022-11-16T00:24:31.611Z,22.4
2022-11-16T00:26:15.022Z,22.4
2022-11-16T00:27:58.398Z,22.4
2022-11-16T00:29:41.797Z,22.4
2022-11-16T00:31:25.206Z,22.4
2022-11-16T00:33:08.596Z,22.4
2022-11-16T00:36:35.101Z,22.4
2022-11-16T00:38:18.450Z,22.4
2022-11-16T00:40:01.865Z,22.4
2022-11-16T00:41:45.254Z,22.4
2022-11-16T00:43:28.660Z,22.4
2022-11-16T00:45:12.105Z,22.4
2022-11-16T00:46:55.434Z,22.4
2022-11-16T00:48:38.839Z,22.4
2022-11-16T00:53:48.073Z,22.4
2022-11-16T00:55:31.480Z,22.4
2022-11-16T00:57:14.874Z,22.4
2022-11-16T00:58:58.271Z,22.4
2022-11-16T01:00:41.669Z,22.4
2022-11-16T01:02:25.069Z,22.4
2022-11-16T01:04:08.452Z,22.4
2022-11-16T01:05:51.861Z,22.4
2022-11-16T01:07:35.568Z,22.4
2022-11-16T01:09:18.948Z,22.4
2022-11-16T01:11:02.348Z,22.4
2022-11-16T01:12:45.752Z,22.4
2022-11-16T01:14:29.139Z,22.3
2022-11-16T01:16:12.553Z,22.3
2022-11-16T01:17:55.938Z,22.3
2022-11-16T01:19:39.330Z,22.3
2022-11-16T01:23:05.813Z,22.3
2022-11-16T01:24:49.208Z,22.3
2022-11-16T01:26:32.591Z,22.3
2022-11-16T01:28:16.003Z,22.3
2022-11-16T01:29:59.399Z,22.3
2022-11-16T01:31:42.801Z,22.3
2022-11-16T01:33:26.191Z,22.3
2022-11-16T01:35:09.585Z,22.3
2022-11-16T01:36:53.277Z,22.3
2022-11-16T01:38:36.693Z,22.3
2022-11-16T01:40:20.078Z,22.3
2022-11-16T01:42:03.476Z,22.3
2022-11-16T01:43:46.882Z,22.3
2022-11-16T01:45:30.286Z,22.3
2022-11-16T01:47:13.690Z,22.3
2022-11-16T01:48:57.072Z,22.3
2022-11-16T01:50:40.759Z,22.3
2022-11-16T01:52:24.177Z,22.3
2022-11-16T01:54:07.569Z,22.3
2022-11-16T01:55:50.962Z,22.3
2022-11-16T01:57:34.354Z,22.3
2022-11-16T01:59:17.766Z,22.3
2022-11-16T02:01:01.140Z,22.3
2022-11-16T02:02:44.544Z,22.3
2022-11-16T02:04:28.245Z,22.3
2022-11-16T02:06:11.654Z,22.3
2022-11-16T02:07:55.105Z,22.3
2022-11-16T02:09:38.442Z,22.3
2022-11-16T02:11:21.835Z,22.3
2022-11-16T02:13:05.225Z,22.3
2022-11-16T02:14:48.630Z,22.3
2022-11-16T02:16:32.021Z,22.3
2022-11-16T02:19:58.505Z,22.3
2022-11-16T02:21:41.892Z,22.3
2022-11-16T02:23:25.291Z,22.3
2022-11-16T02:25:08.697Z,22.3
2022-11-16T02:26:52.071Z,22.3
2022-11-16T02:28:35.488Z,22.3
2022-11-16T02:30:18.878Z,22.3
2022-11-16T02:32:02.267Z,22.3
2022-11-16T02:33:45.980Z,22.3
2022-11-16T02:35:29.363Z,22.3
2022-11-16T02:37:12.774Z,22.3
2022-11-16T02:38:56.170Z,22.3
2022-11-16T02:40:39.562Z,22.3
2022-11-16T02:42:22.958Z,22.3
2022-11-16T02:44:06.361Z,22.3
2022-11-16T02:45:49.751Z,22.3
2022-11-16T02:50:59.624Z,22.3
2022-11-16T02:52:43.020Z,22.3
2022-11-16T02:54:26.406Z,22.3
2022-11-16T02:56:09.815Z,22.3
2022-11-16T02:57:53.201Z,22.2
2022-11-16T02:59:36.603Z,22.2
2022-11-16T03:01:19.992Z,22.3
2022-11-16T03:04:46.475Z,22.2
2022-11-16T03:06:29.875Z,22.2
2022-11-16T03:08:13.268Z,22.2
2022-11-16T03:09:56.727Z,22.2
2022-11-16T03:11:40.081Z,22.2
2022-11-16T03:13:23.461Z,22.2
2022-11-16T03:15:06.863Z,22.2
2022-11-16T03:16:50.244Z,22.2
2022-11-16T03:21:59.482Z,22.2
2022-11-16T03:23:42.888Z,22.2
2022-11-16T03:25:26.289Z,22.2
2022-11-16T03:27:09.685Z,22.2
2022-11-16T03:28:53.064Z,22.2
2022-11-16T03:30:36.467Z,22.2
2022-11-16T03:32:19.871Z,22.2
2022-11-16T03:34:03.262Z,22.2
2022-11-16T03:35:46.970Z,22.2
2022-11-16T03:37:30.363Z,22.2
2022-11-16T03:39:13.757Z,22.2
2022-11-16T03:40:57.168Z,22.2
2022-11-16T03:42:40.553Z,22.2
2022-11-16T03:44:23.962Z,22.2
2022-11-16T03:46:07.357Z,22.2
2022-11-16T03:47:50.758Z,22.2
2022-11-16T03:51:17.215Z,22.2
2022-11-16T03:53:00.617Z,22.2
2022-11-16T03:54:44.012Z,22.2
2022-11-16T03:56:27.407Z,22.2
2022-11-16T03:58:10.799Z,22.2
2022-11-16T03:59:54.207Z,22.2
2022-11-16T04:01:37.594Z,22.2
2022-11-16T04:03:20.999Z,22.2
2022-11-16T04:05:04.719Z,22.2
2022-11-16T04:06:48.095Z,22.2
2022-11-16T04:08:31.486Z,22.2
2022-11-16T04:10:14.890Z,22.2
2022-11-16T04:11:58.291Z,22.2
2022-11-16T04:13:41.688Z,22.2
2022-11-16T04:15:25.077Z,22.2
2022-11-16T04:17:08.474Z,22.2
2022-11-16T04:22:17.718Z,22.2
2022-11-16T04:24:01.121Z,22.2
2022-11-16T04:25:44.509Z,22.2
2022-11-16T04:27:27.911Z,22.2
2022-11-16T04:29:11.311Z,22.2
2022-11-16T04:30:54.711Z,22.2
2022-11-16T04:32:38.098Z,22.2
2022-11-16T04:34:21.496Z,22.2
2022-11-16T04:36:05.203Z,22.2
2022-11-16T04:37:48.609Z,22.2
2022-11-16T04:39:31.992Z,22.2
2022-11-16T04:41:15.391Z,22.2
2022-11-16T04:42:58.788Z,22.2
2022-11-16T04:44:42.186Z,22.2
2022-11-16T04:46:25.591Z,22.2
2022-11-16T04:48:08.979Z,22.2
2022-11-16T04:49:52.384Z,22.2
2022-11-16T04:53:18.853Z,22.2
2022-11-16T04:55:02.239Z,22.2
2022-11-16T04:56:45.644Z,22.2
2022-11-16T04:58:29.034Z,22.2
2022-11-16T05:00:12.422Z,22.2
2022-11-16T05:01:55.833Z,22.2
2022-11-16T05:03:39.211Z,22.2
2022-11-16T05:05:22.630Z,22.2
2022-11-16T05:08:49.075Z,22.2
2022-11-16T05:10:32.490Z,22.2
2022-11-16T05:12:15.880Z,22.2
2022-11-16T05:13:59.280Z,22.2
2022-11-16T05:15:42.673Z,22.2
2022-11-16T05:17:26.073Z,22.2
2022-11-16T05:19:09.453Z,22.2
2022-11-16T05:20:52.853Z,22.2
2022-11-16T05:22:36.251Z,22.2
2022-11-16T05:24:19.954Z,22.2
2022-11-16T05:26:03.361Z,22.2
2022-11-16T05:27:46.753Z,22.2
2022-11-16T05:29:30.165Z,22.1
2022-11-16T05:31:13.546Z,22.2
2022-11-16T05:32:56.940Z,22.1
2022-11-16T05:34:40.351Z,22.1
2022-11-16T05:36:23.730Z,22.1
2022-11-16T05:38:07.130Z,22.2
2022-11-16T05:41:33.606Z,22.2
2022-11-16T05:43:17.010Z,22.2
2022-11-16T05:45:00.402Z,22.2
2022-11-16T05:46:43.800Z,22.1
2022-11-16T05:48:27.177Z,22.1
2022-11-16T05:50:10.579Z,22.1
2022-11-16T05:51:53.977Z,22.1
2022-11-16T05:53:37.389Z,22.1
2022-11-16T05:58:46.622Z,22.1
2022-11-16T06:00:30.013Z,22.1
2022-11-16T06:02:13.435Z,22.1
2022-11-16T06:03:56.814Z,22.1
2022-11-16T06:09:07.053Z,22.1
2022-11-16T06:10:50.386Z,22.1
2022-11-16T06:14:16.869Z,22.1
2022-11-16T06:22:53.850Z,22.1
2022-11-16T06:24:37.267Z,22.1
2022-11-16T06:26:20.626Z,22.1
2022-11-16T06:29:47.110Z,22.1
2022-11-16T06:33:13.908Z,22.1
2022-11-16T06:34:57.363Z,22.1
2022-11-16T06:36:40.729Z,22.1
2022-11-16T06:38:24.098Z,22.1
2022-11-16T06:40:07.486Z,22.1
2022-11-16T06:41:50.940Z,22.1
2022-11-16T06:45:17.409Z,22.1
2022-11-16T06:47:00.766Z,22.1
2022-11-16T06:48:44.167Z,22.1
2022-11-16T06:50:27.572Z,22.1
2022-11-16T06:52:10.995Z,22.1
2022-11-16T06:53:54.353Z,22.1
2022-11-16T06:55:37.751Z,22.1
2022-11-16T06:57:21.141Z,22.1
2022-11-16T07:02:30.391Z,22.1
2022-11-16T07:04:13.772Z,22.1
2022-11-16T07:05:57.191Z,22.1
2022-11-16T07:07:40.570Z,22.1
2022-11-16T07:09:23.969Z,22.1
2022-11-16T07:11:07.363Z,22.1
2022-11-16T07:12:50.770Z,22.1
2022-11-16T07:14:34.176Z,22.1
2022-11-16T07:18:00.645Z,22.1
2022-11-16T07:19:44.040Z,22.1
2022-11-16T07:21:27.426Z,22.1
2022-11-16T07:23:10.814Z,22.1
2022-11-16T07:24:54.245Z,22.1
2022-11-16T07:26:37.648Z,22.1
2022-11-16T07:28:21.017Z,22.1
2022-11-16T07:30:04.449Z,22.1
2022-11-16T07:31:47.828Z,22.1
2022-11-16T07:33:31.530Z,22.1
2022-11-16T07:35:14.966Z,21.9
2022-11-16T07:36:58.308Z,21.7
2022-11-16T07:38:41.708Z,21.5
2022-11-16T07:40:25.134Z,21.4
2022-11-16T07:42:08.513Z,21.4
2022-11-16T07:43:51.902Z,21.4
2022-11-16T07:45:35.290Z,21.5
2022-11-16T07:50:44.549Z,21.6
2022-11-16T07:52:27.917Z,21.7
2022-11-16T07:54:11.333Z,21.7
2022-11-16T07:55:54.709Z,21.7
2022-11-16T07:57:38.128Z,21.7
2022-11-16T07:59:21.505Z,21.8
2022-11-16T08:01:04.914Z,21.8
2022-11-16T08:02:48.299Z,21.8
2022-11-16T08:07:57.608Z,21.9
2022-11-16T08:09:40.973Z,21.9
2022-11-16T08:11:24.359Z,21.9
2022-11-16T08:13:07.730Z,22
2022-11-16T08:14:51.118Z,22
2022-11-16T08:16:34.517Z,22
2022-11-16T08:18:17.911Z,22
2022-11-16T08:20:01.328Z,22
2022-11-16T08:23:27.830Z,22
2022-11-16T08:25:11.183Z,22.1
2022-11-16T08:26:54.602Z,22.1
2022-11-16T08:28:37.972Z,22.1
2022-11-16T08:30:21.377Z,22.1
2022-11-16T08:32:04.770Z,22.1
2022-11-16T08:33:48.168Z,22.1
2022-11-16T08:35:31.557Z,22.1
2022-11-16T08:40:40.801Z,22.2
2022-11-16T08:42:24.195Z,22.2
2022-11-16T08:44:07.604Z,22.2
2022-11-16T08:45:51.004Z,22.2
2022-11-16T08:47:34.424Z,22.3
2022-11-16T08:49:17.787Z,22.3
2022-11-16T08:51:01.171Z,22.3
2022-11-16T08:52:44.585Z,22.3
2022-11-16T08:56:11.047Z,22.3
2022-11-16T08:57:54.441Z,22.4
2022-11-16T08:59:37.838Z,22.3
2022-11-16T09:01:21.238Z,22.4
2022-11-16T09:03:04.646Z,22.4
2022-11-16T09:04:48.029Z,22.4
2022-11-16T09:06:31.438Z,22.4
2022-11-16T09:08:14.896Z,22.4
2022-11-16T09:09:58.554Z,22.4
2022-11-16T09:11:41.922Z,22.4
2022-11-16T09:13:25.330Z,22.4
2022-11-16T09:15:08.741Z,22.4
2022-11-16T09:16:52.106Z,22.4
2022-11-16T09:18:35.516Z,22.4
2022-11-16T09:20:18.927Z,22.4
2022-11-16T09:22:02.310Z,22.5
2022-11-16T09:25:28.773Z,22.5
2022-11-16T09:27:12.171Z,22.5
2022-11-16T09:28:55.567Z,22.5
2022-11-16T09:30:38.973Z,22.5
2022-11-16T09:32:22.434Z,22.5
2022-11-16T09:34:05.756Z,22.5
2022-11-16T09:35:49.146Z,22.5
2022-11-16T09:37:32.549Z,22.5
2022-11-16T09:40:59.034Z,22.5
2022-11-16T09:42:42.410Z,22.5
2022-11-16T09:44:25.813Z,22.6
2022-11-16T09:46:09.208Z,22.6
2022-11-16T09:47:52.605Z,22.6
2022-11-16T09:49:36.003Z,22.6
2022-11-16T09:51:19.408Z,22.6
2022-11-16T09:53:02.828Z,22.6
2022-11-16T09:56:29.274Z,22.6
2022-11-16T09:58:12.660Z,22.6
2022-11-16T09:59:56.060Z,22.6
2022-11-16T10:01:39.472Z,22.6
2022-11-16T10:03:22.847Z,22.6
2022-11-16T10:05:06.249Z,22.6
2022-11-16T10:06:49.652Z,22.6
2022-11-16T10:08:33.067Z,22.7
2022-11-16T10:13:42.269Z,22.7
2022-11-16T10:15:25.696Z,22.7
2022-11-16T10:17:09.077Z,22.7
2022-11-16T10:18:52.455Z,22.7
2022-11-16T10:20:35.854Z,22.6
2022-11-16T10:22:19.278Z,22.7
2022-11-16T10:24:02.656Z,22.7
2022-11-16T10:25:46.063Z,22.7
2022-11-16T10:29:12.529Z,22.6
2022-11-16T10:30:56.041Z,22.7
2022-11-16T10:32:39.318Z,22.6
2022-11-16T10:34:22.711Z,22.6
2022-11-16T10:36:06.095Z,22.7
2022-11-16T10:37:49.498Z,22.7
2022-11-16T10:39:32.900Z,22.7
2022-11-16T10:41:16.300Z,22.7
2022-11-16T10:42:59.692Z,22.7
2022-11-16T10:44:43.393Z,22.7
2022-11-16T10:46:26.788Z,22.7
2022-11-16T10:48:10.173Z,22.7
2022-11-16T10:49:53.580Z,22.7
2022-11-16T10:51:36.981Z,22.7
2022-11-16T10:53:20.358Z,22.7
2022-11-16T10:55:03.775Z,22.7
2022-11-16T10:56:47.160Z,22.7
2022-11-16T11:01:56.421Z,22.7
2022-11-16T11:03:39.791Z,22.7
2022-11-16T11:05:23.184Z,22.7
2022-11-16T11:07:08.631Z,22.7
2022-11-16T11:08:49.994Z,22.7
2022-11-16T11:10:33.391Z,22.7
2022-11-16T11:12:16.785Z,22.7
2022-11-16T11:14:00.180Z,22.7
2022-11-16T11:19:09.428Z,22.7
2022-11-16T11:20:52.833Z,22.7
2022-11-16T11:22:36.221Z,22.7
2022-11-16T11:24:19.612Z,22.7
2022-11-16T11:26:03.033Z,22.7
2022-11-16T11:27:46.399Z,22.6
2022-11-16T11:29:29.810Z,22.7
2022-11-16T11:31:13.202Z,22.7
2022-11-16T11:36:22.444Z,22.7
2022-11-16T11:38:05.842Z,22.7
2022-11-16T11:39:49.232Z,22.7
2022-11-16T11:41:32.627Z,22.7
2022-11-16T11:43:16.025Z,22.8
2022-11-16T11:44:59.418Z,22.8
2022-11-16T11:46:42.806Z,22.8
2022-11-16T11:48:26.208Z,22.8
2022-11-16T11:50:09.599Z,22.8
2022-11-16T11:51:53.307Z,22.8
2022-11-16T11:53:36.703Z,22.8
2022-11-16T11:55:20.095Z,22.8
2022-11-16T11:57:03.500Z,22.8
2022-11-16T11:58:46.884Z,22.8
2022-11-16T12:00:30.278Z,22.8
2022-11-16T12:02:13.688Z,22.8
2022-11-16T12:03:57.078Z,22.8
2022-11-16T12:09:06.312Z,22.8
2022-11-16T12:10:49.712Z,22.9
2022-11-16T12:12:33.125Z,22.9
2022-11-16T12:14:16.509Z,22.9
2022-11-16T12:15:59.913Z,22.9
2022-11-16T12:17:43.291Z,22.9
2022-11-16T12:19:26.697Z,22.9
2022-11-16T12:21:10.093Z,22.9
2022-11-16T12:26:19.320Z,22.9
2022-11-16T12:28:02.725Z,22.9
2022-11-16T12:29:46.108Z,23
2022-11-16T12:31:29.514Z,23
2022-11-16T12:33:12.904Z,23
2022-11-16T12:34:56.298Z,23
2022-11-16T12:36:39.716Z,23
2022-11-16T12:38:23.102Z,22.9
2022-11-16T12:41:49.573Z,22.9
2022-11-16T12:43:32.968Z,22.9
2022-11-16T12:45:16.368Z,22.9
2022-11-16T12:46:59.759Z,22.9
2022-11-16T12:48:43.177Z,22.9
2022-11-16T12:50:26.552Z,22.9
2022-11-16T12:52:09.961Z,22.9
2022-11-16T12:53:53.348Z,22.9
2022-11-16T12:59:02.585Z,22.9
2022-11-16T13:00:45.991Z,22.9
2022-11-16T13:02:29.392Z,22.8
2022-11-16T13:04:12.778Z,22.8
2022-11-16T13:05:56.177Z,22.8
2022-11-16T13:07:39.567Z,22.8
2022-11-16T13:09:22.964Z,22.8
2022-11-16T13:11:06.356Z,22.8
2022-11-16T13:14:32.886Z,22.8
2022-11-16T13:16:16.231Z,22.8
2022-11-16T13:17:59.615Z,22.8
2022-11-16T13:19:43.028Z,22.8
2022-11-16T13:21:26.411Z,22.8
2022-11-16T13:23:09.801Z,22.9
2022-11-16T13:24:53.272Z,22.9
2022-11-16T13:26:36.596Z,22.9
2022-11-16T13:31:45.846Z,22.9
2022-11-16T13:33:29.242Z,22.9
2022-11-16T13:35:12.659Z,22.9
2022-11-16T13:36:56.114Z,22.9
2022-11-16T13:38:39.447Z,22.9
2022-11-16T13:40:22.826Z,22.9
2022-11-16T13:42:06.227Z,22.9
2022-11-16T13:43:49.612Z,22.9
2022-11-16T13:47:16.096Z,22.9
2022-11-16T13:48:59.493Z,22.9
2022-11-16T13:50:42.885Z,22.8
2022-11-16T13:52:26.272Z,22.8
2022-11-16T13:54:09.682Z,22.8
2022-11-16T13:55:53.115Z,22.8
2022-11-16T13:57:36.518Z,22.8
2022-11-16T13:59:19.868Z,22.8
2022-11-16T14:02:46.337Z,22.8
2022-11-16T14:04:29.775Z,22.8
2022-11-16T14:06:13.131Z,22.8
2022-11-16T14:07:56.525Z,22.8
2022-11-16T14:09:39.944Z,22.8
2022-11-16T14:11:23.332Z,22.8
2022-11-16T14:13:06.709Z,22.8
2022-11-16T14:14:50.101Z,22.8
2022-11-16T14:19:59.358Z,22.8
2022-11-16T14:21:42.744Z,22.8
2022-11-16T14:23:26.136Z,22.8
2022-11-16T14:25:09.529Z,22.8
2022-11-16T14:26:52.981Z,22.8
2022-11-16T14:28:36.390Z,22.8
2022-11-16T14:30:19.737Z,22.8
2022-11-16T14:32:03.146Z,22.8
2022-11-16T14:37:12.402Z,22.7
2022-11-16T14:38:55.766Z,22.7
2022-11-16T14:40:39.199Z,22.7
2022-11-16T14:42:22.648Z,22.7
2022-11-16T14:44:05.958Z,22.7
2022-11-16T14:45:49.349Z,22.7
2022-11-16T14:47:32.764Z,22.7
2022-11-16T14:49:16.151Z,22.7
2022-11-16T14:52:42.615Z,22.7
2022-11-16T14:54:26.011Z,22.7
2022-11-16T14:56:09.399Z,22.7
2022-11-16T14:57:52.785Z,22.7
2022-11-16T14:59:36.236Z,22.7
2022-11-16T15:01:19.605Z,22.7
2022-11-16T15:03:02.982Z,22.7
2022-11-16T15:04:46.369Z,22.7
2022-11-16T15:09:55.624Z,22.7
2022-11-16T15:11:39.022Z,22.7
2022-11-16T15:13:22.463Z,22.7
2022-11-16T15:15:05.820Z,22.7
2022-11-16T15:16:49.216Z,22.7
2022-11-16T15:18:32.659Z,22.7
2022-11-16T15:20:16.017Z,22.6
2022-11-16T15:21:59.406Z,22.6
2022-11-16T15:25:25.874Z,22.6
2022-11-16T15:27:09.257Z,22.6
2022-11-16T15:28:52.656Z,22.6
2022-11-16T15:30:36.060Z,22.6
2022-11-16T15:32:19.514Z,22.6
2022-11-16T15:34:02.849Z,22.6
2022-11-16T15:35:46.322Z,22.6
2022-11-16T15:37:29.927Z,22.6
2022-11-16T15:42:38.869Z,22.6
2022-11-16T15:44:22.276Z,22.6
2022-11-16T15:46:05.670Z,22.6
2022-11-16T15:47:49.070Z,22.6
2022-11-16T15:49:32.473Z,22.6
2022-11-16T15:51:15.852Z,22.6
2022-11-16T15:52:59.261Z,22.6
2022-11-16T15:54:42.722Z,22.6
2022-11-16T15:59:51.897Z,22.6
2022-11-16T16:01:35.297Z,22.6
2022-11-16T16:03:18.703Z,22.6
2022-11-16T16:05:02.088Z,22.6
2022-11-16T16:06:45.489Z,22.6
2022-11-16T16:08:28.888Z,22.6
2022-11-16T16:10:12.269Z,22.6
2022-11-16T16:11:55.668Z,22.6
2022-11-16T16:17:04.917Z,22.6
2022-11-16T16:18:48.307Z,22.6
2022-11-16T16:20:31.707Z,22.6
2022-11-16T16:22:15.154Z,22.6
2022-11-16T16:23:58.517Z,22.6
2022-11-16T16:25:41.899Z,22.6
2022-11-16T16:27:25.306Z,22.6
2022-11-16T16:29:08.682Z,22.6
2022-11-16T16:34:17.919Z,22.6
2022-11-16T16:36:01.338Z,22.6
2022-11-16T16:37:44.726Z,22.6
2022-11-16T16:39:28.110Z,22.6
2022-11-16T16:41:11.566Z,22.6
2022-11-16T16:42:54.919Z,22.7
2022-11-16T16:44:38.315Z,22.7
2022-11-16T16:46:21.756Z,22.7
2022-11-16T16:48:05.159Z,22.7
2022-11-16T16:51:31.557Z,22.7
2022-11-16T16:53:14.962Z,22.7
2022-11-16T16:54:58.399Z,22.7
2022-11-16T16:56:41.765Z,22.7
2022-11-16T16:58:25.152Z,22.7
2022-11-16T17:00:08.559Z,22.7
2022-11-16T17:01:51.957Z,22.7
2022-11-16T17:03:35.325Z,22.7
2022-11-16T17:05:18.757Z,22.7
2022-11-16T17:07:02.445Z,22.7
2022-11-16T17:08:45.857Z,22.7
2022-11-16T17:10:29.235Z,22.8
2022-11-16T17:12:12.640Z,22.7
2022-11-16T17:13:56.019Z,22.8
2022-11-16T17:15:39.415Z,22.7
2022-11-16T17:17:22.821Z,22.7
2022-11-16T17:19:06.228Z,22.7
2022-11-16T17:20:49.615Z,22.7
2022-11-16T17:24:16.150Z,22.7
2022-11-16T17:25:59.498Z,22.7
2022-11-16T17:27:42.880Z,22.7
2022-11-16T17:29:26.261Z,22.7
2022-11-16T17:31:09.678Z,22.7
2022-11-16T17:32:53.105Z,22.7
2022-11-16T17:34:36.514Z,22.7
2022-11-16T17:36:19.857Z,22.7
2022-11-16T17:41:29.099Z,22.7
2022-11-16T17:43:12.490Z,22.7
2022-11-16T17:44:55.885Z,22.7
2022-11-16T17:46:39.289Z,22.7
2022-11-16T17:48:22.781Z,22.7
2022-11-16T17:50:06.084Z,22.7
2022-11-16T17:51:49.586Z,22.7
2022-11-16T17:53:32.866Z,22.7
2022-11-16T17:55:16.275Z,22.7
2022-11-16T17:57:00.004Z,22.7
2022-11-16T17:58:43.389Z,22.7
2022-11-16T18:00:26.770Z,22.7
2022-11-16T18:02:10.163Z,22.7
2022-11-16T18:03:53.561Z,22.7
2022-11-16T18:05:36.971Z,22.7
2022-11-16T18:07:20.358Z,22.7
2022-11-16T18:09:03.795Z,22.7
2022-11-16T18:14:12.978Z,22.7
2022-11-16T18:15:56.395Z,22.7
2022-11-16T18:17:39.778Z,22.6
2022-11-16T18:19:23.181Z,22.7
2022-11-16T18:21:06.555Z,22.6
2022-11-16T18:22:49.964Z,22.7
2022-11-16T18:24:33.374Z,22.6
2022-11-16T18:26:16.760Z,22.6
2022-11-16T18:29:43.268Z,22.6
2022-11-16T18:31:26.626Z,22.6
2022-11-16T18:33:10.055Z,22.6
2022-11-16T18:34:53.427Z,22.6
2022-11-16T18:36:36.916Z,22.6
2022-11-16T18:38:20.221Z,22.6
2022-11-16T18:40:03.610Z,22.6
2022-11-16T18:41:46.997Z,22.6
2022-11-16T18:45:13.476Z,22.6
2022-11-16T18:46:56.867Z,22.6
2022-11-16T18:48:40.271Z,22.6
2022-11-16T18:50:23.679Z,22.6
2022-11-16T18:52:07.069Z,22.6
2022-11-16T18:53:50.458Z,22.6
2022-11-16T18:55:33.916Z,22.6
2022-11-16T18:57:17.307Z,22.6
2022-11-16T18:59:00.690Z,22.6
2022-11-16T19:00:44.346Z,22.6
2022-11-16T19:02:27.776Z,22.6
2022-11-16T19:04:11.137Z,22.5
2022-11-16T19:05:54.538Z,22.6
2022-11-16T19:07:37.939Z,22.5
2022-11-16T19:09:21.338Z,22.5
2022-11-16T19:11:04.731Z,22.5
2022-11-16T19:12:48.136Z,22.5
2022-11-16T19:17:57.371Z,22.5
2022-11-16T19:19:40.773Z,22.5
2022-11-16T19:21:24.187Z,22.5
2022-11-16T19:23:07.620Z,22.5
2022-11-16T19:24:51.011Z,22.5
2022-11-16T19:26:34.481Z,22.5
2022-11-16T19:28:17.869Z,22.5
2022-11-16T19:30:01.190Z,22.5
2022-11-16T19:35:10.456Z,22.5
2022-11-16T19:36:53.791Z,22.5
2022-11-16T19:38:37.222Z,22.5
2022-11-16T19:40:20.563Z,22.5
2022-11-16T19:42:03.961Z,22.5
2022-11-16T19:43:47.389Z,22.5
2022-11-16T19:45:30.765Z,22.5
2022-11-16T19:47:14.144Z,22.5
2022-11-16T19:50:40.624Z,22.5
2022-11-16T19:52:24.020Z,22.5
2022-11-16T19:54:07.434Z,22.5
2022-11-16T19:55:50.837Z,22.5
2022-11-16T19:57:34.211Z,22.5
2022-11-16T19:59:17.710Z,22.5
2022-11-16T20:01:01.005Z,22.5
2022-11-16T20:02:44.404Z,22.5
2022-11-16T20:04:27.906Z,22.5
2022-11-16T20:06:11.527Z,22.5
2022-11-16T20:07:54.989Z,22.5
2022-11-16T20:09:38.345Z,22.5
2022-11-16T20:11:21.709Z,22.5
2022-11-16T20:13:05.163Z,22.5
2022-11-16T20:14:48.503Z,22.5
2022-11-16T20:16:31.896Z,22.5
2022-11-16T20:18:15.280Z,22.5
2022-11-16T20:19:58.673Z,22.4
2022-11-16T20:23:25.148Z,22.4
2022-11-16T20:25:08.606Z,22.4
2022-11-16T20:26:51.949Z,22.4
2022-11-16T20:28:35.367Z,22.4
2022-11-16T20:30:18.752Z,22.4
2022-11-16T20:32:02.132Z,22.4
2022-11-16T20:35:28.943Z,22.4
2022-11-16T20:40:38.164Z,22.4
2022-11-16T20:42:21.564Z,22.4
2022-11-16T20:44:04.965Z,22.4
2022-11-16T20:45:48.333Z,22.4
2022-11-16T20:47:31.729Z,22.4
2022-11-16T20:49:15.155Z,22.4
2022-11-16T20:50:58.552Z,22.4
2022-11-16T20:52:41.982Z,22.4
2022-11-16T20:56:08.497Z,22.4
2022-11-16T20:57:51.803Z,22.4
2022-11-16T21:01:18.593Z,22.4
2022-11-16T21:03:01.980Z,22.4
2022-11-16T21:04:45.462Z,22.4
2022-11-16T21:06:28.789Z,22.4
2022-11-16T21:08:12.189Z,22.4
2022-11-16T21:09:55.687Z,22.4
2022-11-16T21:11:39.353Z,22.4
2022-11-16T21:13:22.664Z,22.4
2022-11-16T21:15:06.072Z,22.4
2022-11-16T21:16:49.573Z,22.4
2022-11-16T21:18:32.877Z,22.4
2022-11-16T21:20:16.321Z,22.4
2022-11-16T21:21:59.824Z,22.4
2022-11-16T21:23:43.241Z,22.4
2022-11-16T21:25:26.444Z,22.4
2022-11-16T21:28:52.966Z,22.4
2022-11-16T21:30:36.304Z,22.4
2022-11-16T21:32:19.756Z,22.4
2022-11-16T21:34:03.158Z,22.4
2022-11-16T21:35:46.566Z,22.4
2022-11-16T21:37:29.880Z,22.4
2022-11-16T21:39:13.352Z,22.4
2022-11-16T21:40:56.680Z,22.4
2022-11-16T21:46:05.925Z,22.4
2022-11-16T21:47:49.317Z,22.4
2022-11-16T21:49:32.719Z,22.4
2022-11-16T21:51:16.116Z,22.4
2022-11-16T21:52:59.545Z,22.4
2022-11-16T21:54:42.912Z,22.4
2022-11-16T21:56:26.321Z,22.4
2022-11-16T21:58:09.727Z,22.4
2022-11-16T21:59:53.098Z,22.4
2022-11-16T22:03:19.605Z,22.4
2022-11-16T22:05:02.961Z,22.4
2022-11-16T22:06:46.355Z,22.4
2022-11-16T22:08:29.744Z,22.4
2022-11-16T22:10:13.168Z,22.4
2022-11-16T22:11:56.550Z,22.4
2022-11-16T22:13:39.942Z,22.4
2022-11-16T22:15:23.355Z,22.4
2022-11-16T22:20:32.586Z,22.4
2022-11-16T22:22:15.987Z,22.4
2022-11-16T22:23:59.409Z,22.4
2022-11-16T22:25:42.772Z,22.4
2022-11-16T22:27:26.165Z,22.4
2022-11-16T22:29:09.553Z,22.4
2022-11-16T22:30:52.949Z,22.3
2022-11-16T22:32:36.342Z,22.3
2022-11-16T22:34:19.822Z,22.4
2022-11-16T22:36:03.448Z,22.4
2022-11-16T22:37:46.851Z,22.4
2022-11-16T22:39:30.266Z,22.4
2022-11-16T22:41:13.647Z,22.4
2022-11-16T22:42:57.038Z,22.4
2022-11-16T22:44:40.429Z,22.4
2022-11-16T22:46:23.841Z,22.4
2022-11-16T22:48:07.231Z,22.4
2022-11-16T22:49:50.606Z,22.4
2022-11-16T22:51:34.325Z,22.4
2022-11-16T22:53:17.772Z,22.4
2022-11-16T22:55:01.120Z,22.4
2022-11-16T22:56:44.510Z,22.4
2022-11-16T22:58:27.912Z,22.4
2022-11-16T23:00:11.325Z,22.4
2022-11-16T23:01:54.729Z,22.4
2022-11-16T23:03:38.134Z,22.4
2022-11-16T23:05:21.520Z,22.4
2022-11-16T23:08:47.958Z,22.4
2022-11-16T23:10:31.361Z,22.4
2022-11-16T23:12:14.759Z,22.4
2022-11-16T23:13:58.160Z,22.4
2022-11-16T23:15:41.548Z,22.4
2022-11-16T23:17:24.937Z,22.4
2022-11-16T23:19:08.340Z,22.4
2022-11-16T23:20:51.750Z,22.4
2022-11-16T23:22:35.151Z,22.4
2022-11-16T23:24:18.835Z,22.4
2022-11-16T23:26:02.239Z,22.4
2022-11-16T23:27:45.629Z,22.4
2022-11-16T23:29:29.034Z,22.4
2022-11-16T23:31:12.531Z,22.4
2022-11-16T23:32:55.934Z,22.4
2022-11-16T23:34:39.207Z,22.4
2022-11-16T23:36:22.620Z,22.4
2022-11-16T23:41:31.858Z,22.4
2022-11-16T23:43:15.304Z,22.3
2022-11-16T23:44:58.648Z,22.3
2022-11-16T23:46:42.040Z,22.3
2022-11-16T23:48:25.444Z,22.4
2022-11-16T23:50:08.905Z,22.3
2022-11-16T23:51:52.235Z,22.3
2022-11-16T23:53:35.636Z,22.3
2022-11-16T23:55:19.024Z,22.3
2022-11-16T23:57:02.728Z,22.3
2022-11-16T23:58:46.126Z,22.3
